Weather History for Cadillac, MI

Change the Weather History Date:

Tuesday, March 5, 2013

  Actual Average Record
Temperature  
Mean Temperature 22 °F -  
Max Temperature 33 °F 35 °F 49 °F (1983)
Min Temperature 12 °F 15 °F -16 °F (1978)
Degree Days  
Heating Degree Days 42    
Moisture  
Dew Point 15 °F    
Average Humidity 68    
Maximum Humidity 87    
Minimum Humidity 56    
Precipitation  
Precipitation 0.00 in - - ()
Sea Level Pressure  
Sea Level Pressure 29.98 in    
Wind  
Wind Speed 7 mph (ENE)    
Max Wind Speed 17 mph    
Max Gust Speed 23 mph    
Visibility 10 miles    
Events      
Averages and records for this station are not official NWS values.
T = Trace of Precipitation, MM = Missing Value Source: NWS Daily Summary

Daily Weather History Graph

Daily Weather History Graph

Search for Another Location

Airport:

Trip Planner

Search our weather history database for the weather conditions in past years. The results will help you decide how hot, cold, wet, or windy it might be!

Date:

Astronomy

Mar. 05, 2013 Rise Set
Actual Time 7:11 AM EST 6:35 PM EST
Civil Twilight 6:42 AM EST 7:04 PM EST
Nautical Twilight 6:09 AM EST 7:37 PM EST
Astronomical Twilight 5:35 AM EST 8:11 PM EST
Moon 2:32 AM EST (3/5) 12:03 PM EST (3/5)
Length of Visible Light 12h 21m
Length of Day
11h 23m
Last Quarter, 41% of the Moon is Illuminated
Mar 5
Last Quarter
Mar 11
New
Mar 19
First Quarter
Mar 27
Full
Apr 3
Last Quarter

Hourly Weather History & Observations

Time (EST) Temp. Windchill Dew Point Humidity Pressure Visibility Wind Dir Wind Speed Gust Speed Precip Events Conditions
12:15 AM 18.9 °F 13.7 °F 9.3 °F 66% 30.08 in 10.0 mi NE 3.5 mph - N/A   Clear
12:34 AM 18.9 °F - 8.4 °F 64% 30.08 in 10.0 mi Calm Calm - N/A   Clear
12:55 AM 16.3 °F - 8.8 °F 72% 30.08 in 10.0 mi Calm Calm - N/A   Clear
1:35 AM 16.3 °F 10.8 °F 7.2 °F 67% 30.08 in 10.0 mi ENE 3.5 mph - N/A   Clear
1:55 AM 14.7 °F - 7.5 °F 73% 30.07 in 10.0 mi Calm Calm - N/A   Clear
2:15 AM 16.3 °F 7.8 °F 8.1 °F 70% 30.08 in 10.0 mi ENE 5.8 mph - N/A   Clear
2:35 AM 16.3 °F 10.8 °F 5.7 °F 63% 30.08 in 10.0 mi NE 3.5 mph - N/A   Clear
2:55 AM 16.3 °F 9.2 °F 5.2 °F 62% 30.07 in 10.0 mi ENE 4.6 mph - N/A   Clear
3:15 AM 16.3 °F 7.8 °F 5.5 °F 63% 30.06 in 10.0 mi ENE 5.8 mph - N/A   Clear
3:35 AM 16.3 °F 9.2 °F 5.9 °F 64% 30.06 in 10.0 mi ENE 4.6 mph - N/A   Clear
3:55 AM 16.3 °F 7.8 °F 5.7 °F 63% 30.05 in 10.0 mi NE 5.8 mph - N/A   Clear
4:14 AM 16.3 °F 7.8 °F 5.5 °F 63% 30.05 in 10.0 mi ENE 5.8 mph - N/A   Clear
4:35 AM 16.3 °F 7.8 °F 5.5 °F 63% 30.03 in 10.0 mi ENE 5.8 mph - N/A   Clear
4:55 AM 13.8 °F 3.7 °F 3.9 °F 65% 30.03 in 10.0 mi ENE 6.9 mph - N/A   Clear
5:14 AM 13.8 °F 2.7 °F 3.7 °F 64% 30.03 in 10.0 mi ENE 8.1 mph - N/A   Clear
6:14 AM 13.8 °F 4.9 °F 5.5 °F 70% 30.03 in 10.0 mi East 5.8 mph - N/A   Clear
6:35 AM 13.8 °F 4.9 °F 5.9 °F 71% 30.02 in 10.0 mi ENE 5.8 mph - N/A   Clear
7:14 AM 12.6 °F - 5.5 °F 74% 30.02 in 10.0 mi Calm Calm - N/A   Clear
7:35 AM 13.8 °F 4.9 °F 6.1 °F 71% 30.02 in 10.0 mi ENE 5.8 mph - N/A   Clear
7:55 AM 13.8 °F 4.9 °F 5.7 °F 70% 30.02 in 10.0 mi ENE 5.8 mph - N/A   Clear
8:14 AM 13.8 °F 1.8 °F 5.0 °F 68% 30.02 in 10.0 mi ENE 9.2 mph - N/A   Clear
8:35 AM 16.3 °F 4.1 °F 6.8 °F 66% 30.02 in 10.0 mi ENE 10.4 mph - N/A   Clear
8:55 AM 17.2 °F 6.8 °F 8.4 °F 68% 30.02 in 10.0 mi ENE 8.1 mph - N/A   Clear
9:14 AM 20.1 °F 8.1 °F 11.3 °F 69% 30.02 in 10.0 mi ENE 11.5 mph - N/A   Clear
9:35 AM 22.3 °F 10.2 °F 13.3 °F 68% 30.00 in 10.0 mi East 12.7 mph - N/A   Clear
9:55 AM 23.9 °F 11.2 °F 14.9 °F 69% 29.99 in 10.0 mi East 15.0 mph 18.4 mph N/A   Clear
10:14 AM 25.2 °F 13.3 °F 15.6 °F 67% 29.98 in 10.0 mi East 13.8 mph - N/A   Clear
10:35 AM 26.4 °F 16.0 °F 16.3 °F 66% 29.98 in 10.0 mi East 11.5 mph - N/A   Clear
10:55 AM 28.9 °F 18.6 °F 18.0 °F 64% 29.98 in 10.0 mi East 12.7 mph 23.0 mph N/A   Clear
11:14 AM 28.9 °F 16.9 °F 16.9 °F 61% 29.97 in 10.0 mi East 17.3 mph 21.9 mph N/A   Clear
11:35 AM 31.5 °F 20.5 °F 19.2 °F 61% 29.96 in 10.0 mi East 16.1 mph 19.6 mph N/A   Clear
11:55 AM 31.5 °F 21.8 °F 19.0 °F 60% 29.96 in 10.0 mi East 12.7 mph 18.4 mph N/A   Clear
12:14 PM 31.5 °F 22.9 °F 18.7 °F 59% 29.96 in 10.0 mi East 10.4 mph - N/A   Clear
12:35 PM 31.5 °F 23.5 °F 18.5 °F 59% 29.96 in 10.0 mi ESE 9.2 mph 16.1 mph N/A   Clear
12:55 PM 32.0 °F 23.0 °F 19.2 °F 59% 29.95 in 10.0 mi East 11.5 mph - N/A   Clear
1:15 PM 33.8 °F 23.9 °F 20.7 °F 59% 29.94 in 10.0 mi East 15.0 mph 21.9 mph N/A   Clear
1:35 PM 33.4 °F 24.8 °F 20.1 °F 58% 29.93 in 10.0 mi East 11.5 mph - N/A   Clear
1:54 PM 33.6 °F 25.6 °F 20.3 °F 58% 29.93 in 10.0 mi ENE 10.4 mph - N/A   Clear
2:15 PM 33.8 °F 25.8 °F 19.8 °F 56% 29.92 in 10.0 mi East 10.4 mph - N/A   Clear
2:34 PM 33.8 °F 24.8 °F 19.9 °F 57% 29.91 in 10.0 mi ENE 12.7 mph 18.4 mph N/A   Clear
2:55 PM 33.8 °F 25.8 °F 20.3 °F 58% 29.91 in 10.0 mi NE 10.4 mph - N/A   Clear
3:15 PM 32.2 °F 23.2 °F 19.9 °F 61% 29.91 in 10.0 mi ENE 11.5 mph - N/A   Clear
3:34 PM 31.6 °F 23.1 °F 19.4 °F 61% 29.90 in 10.0 mi ENE 10.4 mph 18.4 mph N/A   Clear
3:55 PM 31.5 °F 21.4 °F 19.6 °F 62% 29.90 in 10.0 mi East 13.8 mph 19.6 mph N/A   Clear
4:15 PM 31.5 °F 21.4 °F 19.9 °F 62% 29.89 in 10.0 mi ENE 13.8 mph - N/A   Clear
4:34 PM 31.5 °F 20.1 °F 19.9 °F 62% 29.89 in 10.0 mi ENE 17.3 mph - N/A   Clear
4:55 PM 31.5 °F 20.1 °F 19.9 °F 62% 29.89 in 10.0 mi ENE 17.3 mph 21.9 mph N/A   Clear
5:15 PM 31.5 °F 22.3 °F 20.7 °F 64% 29.89 in 10.0 mi ENE 11.5 mph - N/A   Clear
5:34 PM 31.5 °F 22.3 °F 21.0 °F 65% 29.89 in 10.0 mi ENE 11.5 mph - N/A   Clear
5:55 PM 31.5 °F 23.5 °F 21.2 °F 66% 29.89 in 10.0 mi East 9.2 mph - N/A   Clear
6:15 PM 31.3 °F 22.7 °F 21.7 °F 68% 29.89 in 10.0 mi ENE 10.4 mph - N/A   Clear
6:34 PM 29.8 °F 23.9 °F 20.7 °F 69% 29.90 in 10.0 mi ENE 5.8 mph - N/A   Scattered Clouds
6:55 PM 31.5 °F 24.2 °F 21.0 °F 65% 29.90 in 10.0 mi NE 8.1 mph - N/A   Mostly Cloudy
7:15 PM 29.1 °F 20.0 °F 19.4 °F 67% 29.91 in 10.0 mi NE 10.4 mph - N/A   Scattered Clouds
7:35 PM 28.9 °F 19.8 °F 19.8 °F 69% 29.92 in 10.0 mi NE 10.4 mph - N/A   Clear
7:55 PM 28.9 °F 18.6 °F 21.0 °F 72% 29.93 in 10.0 mi ENE 12.7 mph 18.4 mph N/A   Mostly Cloudy
8:14 PM 28.9 °F 19.8 °F 21.4 °F 73% 29.94 in 10.0 mi NE 10.4 mph - N/A   Overcast
8:35 PM 26.4 °F 15.5 °F 19.6 °F 75% 29.95 in 10.0 mi ENE 12.7 mph - N/A   Overcast
8:55 PM 26.4 °F 17.3 °F 20.1 °F 77% 29.95 in 10.0 mi NE 9.2 mph - N/A   Overcast
9:14 PM 25.2 °F 13.9 °F 19.4 °F 79% 29.95 in 10.0 mi ENE 12.7 mph - N/A   Overcast
9:35 PM 24.6 °F 13.2 °F 19.0 °F 79% 29.95 in 10.0 mi ENE 12.7 mph 19.6 mph N/A   Overcast
9:55 PM 24.4 °F 12.4 °F 19.4 °F 81% 29.96 in 10.0 mi ENE 13.8 mph - N/A   Overcast
10:14 PM 24.3 °F 11.7 °F 19.8 °F 83% 29.96 in 10.0 mi ENE 15.0 mph - N/A   Overcast
10:35 PM 24.4 °F 14.9 °F 20.1 °F 84% 29.96 in 10.0 mi NE 9.2 mph 18.4 mph N/A   Overcast
10:55 PM 24.6 °F 16.7 °F 20.7 °F 85% 29.96 in 10.0 mi NE 6.9 mph - N/A   Overcast
11:14 PM 24.6 °F 15.8 °F 20.8 °F 86% 29.96 in 10.0 mi NE 8.1 mph - N/A   Overcast
11:35 PM 24.8 °F 14.6 °F 21.4 °F 87% 29.96 in 10.0 mi NE 10.4 mph - N/A   Overcast
11:55 PM 25.5 °F 16.2 °F 22.1 °F 87% 29.97 in 10.0 mi NE 9.2 mph - N/A   Overcast